createdAt,value
2019-04-16T04:31:16.594Z,1.80
2019-04-16T04:33:45.084Z,1.80
2019-04-16T04:36:13.644Z,1.90
2019-04-16T04:38:43.800Z,1.90
2019-04-16T04:41:12.316Z,1.90
2019-04-16T04:43:40.800Z,1.80
2019-04-16T04:46:12.531Z,1.80
2019-04-16T04:48:39.618Z,1.80
2019-04-16T04:51:08.775Z,1.80
2019-04-16T04:53:37.679Z,1.80
2019-04-16T04:56:06.232Z,1.90
2019-04-16T04:58:34.934Z,1.90
2019-04-16T05:01:03.756Z,2.00
2019-04-16T05:03:39.776Z,1.90
2019-04-16T05:06:09.973Z,1.90
2019-04-16T05:08:38.476Z,2.00
2019-04-16T05:11:07.040Z,2.10
2019-04-16T05:13:35.598Z,2.20
2019-04-16T05:16:06.948Z,2.30
2019-04-16T05:18:34.349Z,2.30
2019-04-16T05:21:02.824Z,2.40
2019-04-16T05:23:32.270Z,2.40
2019-04-16T05:26:04.523Z,2.40
2019-04-16T05:28:30.942Z,2.40
2019-04-16T05:30:59.492Z,2.50
2019-04-16T05:33:39.847Z,2.70
2019-04-16T05:52:32.351Z,9.40
2019-04-16T05:58:34.876Z,10.80
2019-04-16T06:01:05.395Z,11.10
2019-04-16T06:03:52.813Z,11.80
2019-04-16T06:08:59.410Z,11.40
2019-04-16T06:11:36.522Z,11.60
2019-04-16T06:17:13.280Z,10.80
2019-04-16T06:19:54.295Z,11.20
2019-04-16T06:23:43.939Z,11.90
2019-04-16T06:38:51.897Z,11.40
2019-04-16T06:41:41.187Z,12.70
2019-04-16T06:44:03.978Z,12.90
2019-04-16T06:46:39.449Z,13.30
2019-04-16T06:49:14.308Z,13.90
2019-04-16T06:51:53.069Z,14.70
2019-04-16T06:54:25.401Z,14.10
2019-04-16T06:57:01.025Z,13.80
2019-04-16T06:59:31.150Z,14.40
2019-04-16T07:05:14.275Z,13.80
2019-04-16T07:07:56.415Z,14.10
2019-04-16T07:10:44.367Z,13.60
2019-04-16T07:13:11.236Z,14.10
2019-04-16T07:15:38.129Z,14.20
2019-04-16T07:18:06.741Z,15.10
2019-04-16T07:20:37.269Z,14.70
2019-04-16T07:23:05.815Z,13.50
2019-04-16T07:25:39.787Z,13.60
2019-04-16T07:28:09.109Z,14.10
2019-04-16T07:30:47.318Z,13.80
2019-04-16T07:33:34.390Z,13.10
2019-04-16T07:36:10.607Z,13.70
2019-04-16T07:38:40.861Z,14.50
2019-04-16T07:41:27.596Z,14.30
2019-04-16T07:44:09.677Z,14.10
2019-04-16T07:46:36.064Z,14.90
2019-04-16T07:49:12.371Z,15.40
2019-04-16T07:51:48.205Z,15.60
2019-04-16T07:54:21.739Z,14.70
2019-04-16T07:56:54.791Z,14.00
2019-04-16T07:59:23.434Z,15.50
2019-04-16T08:01:51.965Z,15.00
2019-04-16T08:04:28.699Z,15.10
2019-04-16T08:06:51.011Z,14.90
2019-04-16T08:09:19.829Z,14.50
2019-04-16T08:11:48.357Z,14.20
2019-04-16T08:14:16.939Z,15.20
2019-04-16T08:16:47.557Z,15.70
2019-04-16T08:19:16.250Z,14.60
2019-04-16T08:21:46.401Z,15.00
2019-04-16T08:24:16.740Z,15.90
2019-04-16T08:26:45.501Z,16.40
2019-04-16T08:29:14.505Z,16.60
2019-04-16T08:31:45.001Z,15.90
2019-04-16T08:34:13.877Z,16.30
2019-04-16T08:36:42.475Z,15.40
2019-04-16T08:39:12.637Z,15.50
2019-04-16T08:41:41.195Z,15.60
2019-04-16T08:44:10.713Z,15.30
2019-04-16T08:46:40.076Z,14.80
2019-04-16T08:49:09.566Z,14.50
2019-04-16T08:51:38.079Z,14.60
2019-04-16T08:54:06.750Z,14.50
2019-04-16T08:56:37.968Z,14.40
2019-04-16T08:59:09.555Z,14.30
2019-04-16T09:01:37.152Z,13.90
2019-04-16T09:04:05.690Z,14.40
2019-04-16T09:06:34.262Z,15.00
2019-04-16T09:09:13.449Z,14.20
2019-04-16T09:11:41.969Z,15.00
2019-04-16T09:14:10.610Z,15.10
2019-04-16T09:16:46.622Z,15.40
2019-04-16T09:19:17.207Z,15.10
2019-04-16T09:21:45.890Z,15.80
2019-04-16T09:24:22.394Z,15.50
2019-04-16T09:27:02.262Z,15.60
2019-04-16T09:29:50.815Z,15.90
2019-04-16T09:32:24.572Z,15.60
2019-04-16T09:35:18.696Z,15.60
2019-04-16T09:38:02.568Z,14.70
2019-04-16T09:40:49.302Z,15.10
2019-04-16T09:43:19.744Z,15.50
2019-04-16T09:45:48.427Z,15.40
2019-04-16T09:48:16.948Z,15.60
2019-04-16T09:50:47.854Z,15.70
2019-04-16T09:53:15.700Z,15.00
2019-04-16T09:55:47.576Z,15.50
2019-04-16T09:58:22.377Z,16.30
2019-04-16T10:00:52.868Z,16.50
2019-04-16T10:03:40.950Z,15.40
2019-04-16T10:06:09.632Z,15.30
2019-04-16T10:08:38.264Z,15.30
2019-04-16T10:11:07.235Z,15.80
2019-04-16T10:13:36.374Z,16.10
2019-04-16T10:16:05.512Z,16.30
2019-04-16T10:18:35.272Z,16.10
2019-04-16T10:21:10.770Z,15.70
2019-04-16T10:26:27.551Z,14.60
2019-04-16T10:28:59.384Z,15.70
2019-04-16T10:31:28.322Z,16.30
2019-04-16T10:33:56.841Z,16.00
2019-04-16T10:36:25.627Z,15.80
2019-04-16T10:39:12.570Z,15.70
2019-04-16T10:41:49.187Z,16.10
2019-04-16T10:44:34.594Z,16.10
2019-04-16T10:47:30.126Z,16.30
2019-04-16T10:50:05.841Z,16.80
2019-04-16T10:52:45.183Z,15.40
2019-04-16T10:55:18.577Z,15.90
2019-04-16T10:58:12.529Z,16.80
2019-04-16T11:00:56.519Z,16.80
2019-04-16T11:03:28.671Z,16.80
2019-04-16T11:05:58.617Z,16.70
2019-04-16T11:08:27.613Z,15.90
2019-04-16T11:10:56.433Z,15.70
2019-04-16T11:13:59.616Z,15.90
2019-04-16T11:16:20.497Z,16.90
2019-04-16T11:18:50.054Z,16.00
2019-04-16T11:21:19.009Z,16.40
2019-04-16T11:23:48.024Z,17.50
2019-04-16T11:26:17.299Z,17.40
2019-04-16T11:28:45.883Z,17.00
2019-04-16T11:31:16.266Z,16.10
2019-04-16T11:33:45.882Z,16.60
2019-04-16T11:36:19.554Z,16.90
2019-04-16T11:38:44.661Z,16.30
2019-04-16T11:41:13.404Z,16.30
2019-04-16T11:43:41.961Z,16.90
2019-04-16T11:46:10.806Z,16.50
2019-04-16T11:48:39.533Z,16.40
2019-04-16T11:51:08.078Z,15.90
2019-04-16T11:53:46.549Z,16.00
2019-04-16T11:56:15.149Z,15.80
2019-04-16T11:58:45.589Z,15.90
2019-04-16T12:01:32.523Z,15.80
2019-04-16T12:04:16.453Z,15.80
2019-04-16T12:06:47.120Z,15.70
2019-04-16T12:09:32.383Z,15.70
2019-04-16T12:12:11.885Z,15.90
2019-04-16T12:14:48.697Z,15.70
2019-04-16T12:17:24.933Z,15.80
2019-04-16T12:20:06.535Z,15.40
2019-04-16T12:22:42.982Z,15.20
2019-04-16T12:25:13.764Z,15.60
2019-04-16T12:27:47.701Z,15.50
2019-04-16T12:30:24.249Z,15.60
2019-04-16T12:32:58.586Z,15.70
2019-04-16T12:35:47.021Z,16.00
2019-04-16T12:38:25.617Z,16.20
2019-04-16T12:41:14.170Z,16.10
2019-04-16T12:43:50.776Z,16.00
2019-04-16T12:46:22.534Z,16.10
2019-04-16T12:48:52.912Z,15.80
2019-04-16T12:51:39.846Z,16.00
2019-04-16T12:54:08.257Z,16.40
2019-04-16T12:56:41.632Z,16.10
2019-04-16T12:59:12.138Z,16.20
2019-04-16T13:02:02.103Z,16.30
2019-04-16T13:04:50.508Z,15.90
2019-04-16T13:07:26.708Z,16.40
2019-04-16T13:09:56.965Z,16.60
2019-04-16T13:12:43.691Z,16.70
2019-04-16T13:15:29.546Z,17.00
2019-04-16T13:18:02.842Z,16.60
2019-04-16T13:20:52.320Z,16.40
2019-04-16T13:23:22.702Z,16.50
2019-04-16T13:26:12.825Z,16.60
2019-04-16T13:28:39.876Z,16.10
2019-04-16T13:31:08.456Z,16.50
2019-04-16T13:33:37.046Z,17.00
2019-04-16T13:36:05.588Z,16.90
2019-04-16T13:38:37.581Z,17.00
2019-04-16T13:41:06.169Z,17.10
2019-04-16T13:43:39.300Z,16.80
2019-04-16T13:46:07.857Z,17.00
2019-04-16T13:48:50.101Z,17.10
2019-04-16T13:51:20.374Z,17.10
2019-04-16T13:53:50.570Z,16.90
2019-04-16T13:56:26.894Z,16.80
2019-04-16T13:59:09.339Z,17.00
2019-04-16T14:01:45.169Z,17.20
2019-04-16T14:04:12.636Z,16.90
2019-04-16T14:06:41.324Z,16.80
2019-04-16T14:09:10.777Z,16.70
2019-04-16T14:11:39.322Z,16.80
2019-04-16T14:14:08.477Z,16.80
2019-04-16T14:16:43.822Z,17.20
2019-04-16T14:19:13.030Z,17.40
2019-04-16T14:21:42.125Z,17.10
2019-04-16T14:24:12.907Z,16.60
2019-04-16T14:26:41.847Z,16.80
2019-04-16T14:29:10.588Z,16.50
2019-04-16T14:31:39.432Z,16.70
2019-04-16T14:34:24.619Z,16.80
2019-04-16T14:36:56.777Z,16.90
2019-04-16T14:39:38.239Z,16.80
2019-04-16T14:42:06.959Z,16.90
2019-04-16T14:44:50.189Z,16.90
2019-04-16T14:47:18.913Z,16.80
2019-04-16T14:49:50.829Z,16.70
2019-04-16T14:52:20.249Z,17.10
2019-04-16T14:54:50.490Z,17.30
2019-04-16T14:57:20.195Z,17.40
2019-04-16T15:00:05.536Z,17.40
2019-04-16T15:02:38.437Z,17.10
2019-04-16T15:05:09.245Z,17.20
2019-04-16T15:07:44.096Z,17.20
2019-04-16T15:10:14.109Z,17.00
2019-04-16T15:12:44.395Z,17.10
2019-04-16T15:15:30.945Z,17.30
2019-04-16T15:18:07.095Z,17.40
2019-04-16T15:20:52.010Z,17.20
2019-04-16T15:23:25.117Z,17.00
2019-04-16T15:25:55.245Z,17.10
2019-04-16T15:28:25.449Z,16.80
2019-04-16T15:31:02.974Z,16.90
2019-04-16T15:33:45.604Z,16.90
2019-04-16T15:36:19.751Z,16.80
2019-04-16T15:38:58.820Z,16.90
2019-04-16T15:41:47.265Z,16.60
2019-04-16T15:44:23.594Z,16.80
2019-04-16T15:46:55.295Z,16.50
2019-04-16T15:49:28.785Z,16.70
2019-04-16T15:52:08.767Z,16.60
2019-04-16T15:54:53.035Z,16.50
2019-04-16T15:57:31.819Z,16.50
2019-04-16T16:00:14.289Z,16.60
2019-04-16T16:02:47.366Z,16.30
2019-04-16T16:05:23.983Z,16.50
2019-04-16T16:07:56.570Z,16.40
2019-04-16T16:10:26.476Z,16.40
2019-04-16T16:12:55.466Z,16.40
2019-04-16T16:15:24.579Z,16.40
2019-04-16T16:17:53.499Z,16.30
2019-04-16T16:20:22.393Z,16.30
2019-04-16T16:22:51.206Z,16.20
2019-04-16T16:25:19.905Z,16.10
2019-04-16T16:27:48.560Z,16.10
2019-04-16T16:30:17.334Z,16.00
2019-04-16T16:32:50.383Z,16.10
2019-04-16T16:35:19.228Z,16.00
2019-04-16T16:37:47.862Z,16.00
2019-04-16T16:40:16.904Z,15.80
2019-04-16T16:42:45.595Z,15.80
2019-04-16T16:45:14.522Z,15.80
2019-04-16T16:47:43.151Z,15.70
2019-04-16T16:50:13.970Z,15.60
2019-04-16T16:52:44.220Z,15.60
2019-04-16T16:55:24.368Z,15.40
2019-04-16T16:57:57.464Z,15.50
2019-04-16T17:00:36.809Z,15.50
2019-04-16T17:06:10.221Z,15.40
2019-04-16T17:08:40.427Z,15.40
2019-04-16T17:11:16.530Z,15.30
2019-04-16T17:17:27.028Z,15.20
2019-04-16T17:20:17.374Z,15.20
2019-04-16T17:25:42.334Z,15.00
2019-04-16T17:28:11.052Z,15.00
2019-04-16T17:30:39.657Z,14.90
2019-04-16T17:33:08.289Z,14.90
2019-04-16T17:35:47.142Z,14.80
2019-04-16T17:38:18.009Z,14.80
2019-04-16T17:40:57.978Z,14.70
2019-04-16T18:03:51.581Z,14.30
2019-04-16T18:17:47.154Z,14.00
2019-04-16T23:37:03.160Z,9.70
2019-04-16T23:39:33.514Z,9.70
2019-04-16T23:42:01.831Z,9.70
2019-04-16T23:44:34.614Z,9.60
2019-04-16T23:47:11.797Z,9.60
2019-04-16T23:49:56.844Z,9.50
2019-04-16T23:52:35.331Z,9.50
2019-04-16T23:55:04.695Z,9.40
2019-04-16T23:57:37.247Z,9.40
